X  Schließen METAR Luftfahrt Wetterdaten        LYNI Nis Airport
Temperatur
7°C Temperatur
1°C Taupunkt
66% Feuchtigkeit



Wind
13 KM/S
8 MPS
4 M/S
7 KTS



330°
NNW
Aktuelle Wetterlage

Mostly Clear Größtenteils klar
Luftdruck 1010 (hPa) - 29.84 (inHg)
Sichtweite 6 (Meile) - 10 (Km)
Flughafen
Flughafen Code LYNI

Position : Nis Airport
Entfernung: 63 (Km)

Metar:
METAR LYNI 200100Z 33007KT CAVOK 07/01 Q1010 NOSIG

Zeit: 20-04-2024 03:00 CEST